Napoli Jet — IQTJ — position and weather

sailwx.info

Track history (hours):
 
Tides and Currents Weather Stations Pressure Air Temp Water Temp Dewpoint Dewpoint Depression Visibility Wind Speed Wind Dir Waves Ship Positions

Napoli Jet

Last reported at 2014-Sep-18 18:29 UTC. Time now 2014-Sep-20 07:54 UTC.
Position N 40°42' E 014°15'.

Length 41 m; draft 1.3 m.

Type: Ship. MMSI: 247051400.

Date/timePositionNaut miles runAvg speedWind from/ knotsBaromVisibWave heightAir tempDewpointWater temp
2014-Sep-18 18:29N 40°42' E 014°15'5 2.3
2014-Sep-18 16:31N 40°47' E 014°17'9 6.9
2014-Sep-18 15:13N 40°38' E 014°15'1318.9
2014-Sep-18 14:33N 40°50' E 014°15'13 4.3
2014-Sep-18 11:27N 40°37' E 014°15'4 0.2
2014-Sep-17 18:34N 40°41' E 014°15'9 4.6
2014-Sep-17 16:33N 40°50' E 014°17'1716.6
2014-Sep-17 15:33N 40°33' E 014°14'15 0.4
2014-Sep-16 05:33N 40°48' E 014°18'1514.8
2014-Sep-16 04:33N 40°33' E 014°14'6 0.6
2014-Sep-15 18:34N 40°39' E 014°15'10 5.1
2014-Sep-15 16:33N 40°49' E 014°17'1616.3
2014-Sep-15 15:33N 40°33' E 014°14'17 5.3
2014-Sep-15 12:24N 40°50' E 014°17'1719.2
2014-Sep-15 11:33N 40°33' E 014°14'0 0.0
2014-Sep-15 10:34N 40°33' E 014°14'0 0.0
2014-Sep-15 09:33N 40°33' E 014°14'15 3.8
2014-Sep-15 05:33N 40°49' E 014°17'1515.3
2014-Sep-15 04:33N 40°33' E 014°14'0 0.0
2014-Sep-14 19:33N 40°33' E 014°14'8 7.8
2014-Sep-14 18:33N 40°41' E 014°16'9 8.0
2014-Sep-14 17:27N 40°50' E 014°17'1718.6
2014-Sep-14 16:33N 40°33' E 014°14'1713.0
2014-Sep-14 15:17N 40°50' E 014°17'1317.4
2014-Sep-14 14:33N 40°38' E 014°23'8 7.6
2014-Sep-14 13:33N 40°33' E 014°14'1 1.1
2014-Sep-14 12:33N 40°33' E 014°16'0 0.0
2014-Sep-14 11:33N 40°33' E 014°16'1 1.1
2014-Sep-14 10:34N 40°33' E 014°14'1515.4
2014-Sep-14 09:33N 40°49' E 014°17'1 0.2
2014-Sep-14 05:33N 40°49' E 014°17'1515.6
2014-Sep-14 04:33N 40°33' E 014°14'7 0.7
2014-Sep-13 18:34N 40°40' E 014°16'2 0.6
2014-Sep-13 15:34N 40°39' E 014°16'5 5.2
2014-Sep-13 14:33N 40°33' E 014°14'0 0.0
2014-Sep-13 13:33N 40°33' E 014°14'0 0.0
2014-Sep-13 12:33N 40°33' E 014°14'1 1.3
2014-Sep-13 11:33N 40°34' E 014°16'1613.5
2014-Sep-13 10:23N 40°50' E 014°16'1720.0
2014-Sep-13 09:33N 40°33' E 014°14'3 3.1
2014-Sep-13 08:34N 40°36' E 014°16'12 4.1
2014-Sep-13 05:33N 40°48' E 014°17'1515.2
2014-Sep-13 04:33N 40°33' E 014°14'7 0.7
2014-Sep-12 18:33N 40°41' E 014°17'9 4.3
2014-Sep-12 16:33N 40°49' E 014°17'1615.9
2014-Sep-12 15:33N 40°33' E 014°14'14 1.4
2014-Sep-12 05:33N 40°48' E 014°17'1414.4
2014-Sep-12 04:33N 40°33' E 014°14'7 0.7
2014-Sep-11 18:33N 40°40' E 014°16'8 0.3
2014-Sep-10 14:06N 40°49' E 014°17'1426.0
2014-Sep-10 13:34N 40°35' E 014°15'1 1.4
2014-Sep-10 12:33N 40°33' E 014°14'0 0.0
2014-Sep-10 11:33N 40°33' E 014°14'1715.0
2014-Sep-10 10:26N 40°50' E 014°15'16 7.6
2014-Sep-10 08:21N 40°34' E 014°15'1 0.0
2014-Sep-09 13:33N 40°34' E 014°15'7 7.2
2014-Sep-09 12:34N 40°38' E 014°23'8 7.6
2014-Sep-09 11:33N 40°33' E 014°15'6 0.4
2014-Sep-08 18:34N 40°39' E 014°16'  
Track history (hours):
 
Tides and Currents Weather Stations Pressure Air Temp Water Temp Dewpoint Dewpoint Depression Visibility Wind Speed Wind Dir Waves Ship Positions

Napoli Jet

Last reported at 2014-Sep-18 18:29 UTC. Time now 2014-Sep-20 07:54 UTC.
Position N 40°42' E 014°15'.

Length 41 m; draft 1.3 m.

Type: Ship. MMSI: 247051400.

Date/timePositionNaut miles runAvg speedWind from/ knotsBaromVisibWave heightAir tempDewpointWater temp
2014-Sep-18 18:29N 40°42' E 014°15'5 2.3
2014-Sep-18 16:31N 40°47' E 014°17'9 6.9
2014-Sep-18 15:13N 40°38' E 014°15'1318.9
2014-Sep-18 14:33N 40°50' E 014°15'13 4.3
2014-Sep-18 11:27N 40°37' E 014°15'4 0.2
2014-Sep-17 18:34N 40°41' E 014°15'9 4.6
2014-Sep-17 16:33N 40°50' E 014°17'1716.6
2014-Sep-17 15:33N 40°33' E 014°14'15 0.4
2014-Sep-16 05:33N 40°48' E 014°18'1514.8
2014-Sep-16 04:33N 40°33' E 014°14'6 0.6
2014-Sep-15 18:34N 40°39' E 014°15'10 5.1
2014-Sep-15 16:33N 40°49' E 014°17'1616.3
2014-Sep-15 15:33N 40°33' E 014°14'17 5.3
2014-Sep-15 12:24N 40°50' E 014°17'1719.2
2014-Sep-15 11:33N 40°33' E 014°14'0 0.0
2014-Sep-15 10:34N 40°33' E 014°14'0 0.0
2014-Sep-15 09:33N 40°33' E 014°14'15 3.8
2014-Sep-15 05:33N 40°49' E 014°17'1515.3
2014-Sep-15 04:33N 40°33' E 014°14'0 0.0
2014-Sep-14 19:33N 40°33' E 014°14'8 7.8
2014-Sep-14 18:33N 40°41' E 014°16'9 8.0
2014-Sep-14 17:27N 40°50' E 014°17'1718.6
2014-Sep-14 16:33N 40°33' E 014°14'1713.0
2014-Sep-14 15:17N 40°50' E 014°17'1317.4
2014-Sep-14 14:33N 40°38' E 014°23'8 7.6
2014-Sep-14 13:33N 40°33' E 014°14'1 1.1
2014-Sep-14 12:33N 40°33' E 014°16'0 0.0
2014-Sep-14 11:33N 40°33' E 014°16'1 1.1
2014-Sep-14 10:34N 40°33' E 014°14'1515.4
2014-Sep-14 09:33N 40°49' E 014°17'1 0.2
2014-Sep-14 05:33N 40°49' E 014°17'1515.6
2014-Sep-14 04:33N 40°33' E 014°14'7 0.7
2014-Sep-13 18:34N 40°40' E 014°16'2 0.6
2014-Sep-13 15:34N 40°39' E 014°16'5 5.2
2014-Sep-13 14:33N 40°33' E 014°14'0 0.0
2014-Sep-13 13:33N 40°33' E 014°14'0 0.0
2014-Sep-13 12:33N 40°33' E 014°14'1 1.3
2014-Sep-13 11:33N 40°34' E 014°16'1613.5
2014-Sep-13 10:23N 40°50' E 014°16'1720.0
2014-Sep-13 09:33N 40°33' E 014°14'3 3.1
2014-Sep-13 08:34N 40°36' E 014°16'12 4.1
2014-Sep-13 05:33N 40°48' E 014°17'1515.2
2014-Sep-13 04:33N 40°33' E 014°14'7 0.7
2014-Sep-12 18:33N 40°41' E 014°17'9 4.3
2014-Sep-12 16:33N 40°49' E 014°17'1615.9
2014-Sep-12 15:33N 40°33' E 014°14'14 1.4
2014-Sep-12 05:33N 40°48' E 014°17'1414.4
2014-Sep-12 04:33N 40°33' E 014°14'7 0.7
2014-Sep-11 18:33N 40°40' E 014°16'8 0.3
2014-Sep-10 14:06N 40°49' E 014°17'1426.0
2014-Sep-10 13:34N 40°35' E 014°15'1 1.4
2014-Sep-10 12:33N 40°33' E 014°14'0 0.0
2014-Sep-10 11:33N 40°33' E 014°14'1715.0
2014-Sep-10 10:26N 40°50' E 014°15'16 7.6
2014-Sep-10 08:21N 40°34' E 014°15'1 0.0
2014-Sep-09 13:33N 40°34' E 014°15'7 7.2
2014-Sep-09 12:34N 40°38' E 014°23'8 7.6
2014-Sep-09 11:33N 40°33' E 014°15'6 0.4
2014-Sep-08 18:34N 40°39' E 014°16'  

Dump ship's entire track history